sensor_id;sensor_type;location;lat;lon;timestamp;P1;durP1;ratioP1;P2;durP2;ratioP2
29688;SDS011;16600;47.444;8.334;2022-08-19T00:00:38;33.17;;;28.63;;
29688;SDS011;16600;47.444;8.334;2022-08-19T00:03:11;31.23;;;27.55;;
29688;SDS011;16600;47.444;8.334;2022-08-19T00:05:42;41.78;;;33.45;;
29688;SDS011;16600;47.444;8.334;2022-08-19T00:08:09;40.33;;;30.98;;
29688;SDS011;16600;47.444;8.334;2022-08-19T00:10:37;41.28;;;35.50;;
29688;SDS011;16600;47.444;8.334;2022-08-19T00:13:03;35.17;;;31.55;;
29688;SDS011;16600;47.444;8.334;2022-08-19T00:17:58;40.03;;;32.42;;
29688;SDS011;16600;47.444;8.334;2022-08-19T00:20:24;35.08;;;31.38;;
29688;SDS011;16600;47.444;8.334;2022-08-19T00:25:21;30.27;;;27.13;;
29688;SDS011;16600;47.444;8.334;2022-08-19T00:27:47;30.83;;;24.38;;
29688;SDS011;16600;47.444;8.334;2022-08-19T00:30:13;44.88;;;33.58;;
29688;SDS011;16600;47.444;8.334;2022-08-19T00:35:15;43.45;;;33.08;;
29688;SDS011;16600;47.444;8.334;2022-08-19T00:37:47;48.25;;;36.22;;
29688;SDS011;16600;47.444;8.334;2022-08-19T00:40:22;42.13;;;35.47;;
29688;SDS011;16600;47.444;8.334;2022-08-19T00:42:48;41.55;;;34.63;;
29688;SDS011;16600;47.444;8.334;2022-08-19T00:47:43;48.00;;;38.33;;
29688;SDS011;16600;47.444;8.334;2022-08-19T00:50:09;42.70;;;33.58;;
29688;SDS011;16600;47.444;8.334;2022-08-19T00:52:37;35.92;;;31.23;;
29688;SDS011;16600;47.444;8.334;2022-08-19T00:55:07;44.30;;;35.90;;
29688;SDS011;16600;47.444;8.334;2022-08-19T00:57:36;43.83;;;33.95;;
29688;SDS011;16600;47.444;8.334;2022-08-19T01:00:05;29.48;;;26.40;;
29688;SDS011;16600;47.444;8.334;2022-08-19T01:02:31;28.92;;;25.55;;
29688;SDS011;16600;47.444;8.334;2022-08-19T01:04:57;35.13;;;30.95;;
29688;SDS011;16600;47.444;8.334;2022-08-19T01:07:24;34.20;;;29.98;;
29688;SDS011;16600;47.444;8.334;2022-08-19T01:12:16;37.70;;;30.55;;
29688;SDS011;16600;47.444;8.334;2022-08-19T01:14:42;38.83;;;32.63;;
29688;SDS011;16600;47.444;8.334;2022-08-19T01:17:08;33.03;;;29.63;;
29688;SDS011;16600;47.444;8.334;2022-08-19T01:19:36;34.70;;;30.95;;
29688;SDS011;16600;47.444;8.334;2022-08-19T01:22:10;29.60;;;26.45;;
29688;SDS011;16600;47.444;8.334;2022-08-19T01:24:36;30.42;;;27.25;;
29688;SDS011;16600;47.444;8.334;2022-08-19T01:29:27;43.50;;;33.67;;
29688;SDS011;16600;47.444;8.334;2022-08-19T01:31:54;41.13;;;32.15;;
29688;SDS011;16600;47.444;8.334;2022-08-19T01:36:46;31.05;;;27.95;;
29688;SDS011;16600;47.444;8.334;2022-08-19T01:39:19;35.70;;;30.05;;
29688;SDS011;16600;47.444;8.334;2022-08-19T01:41:46;37.15;;;32.25;;
29688;SDS011;16600;47.444;8.334;2022-08-19T01:44:11;60.17;;;40.88;;
29688;SDS011;16600;47.444;8.334;2022-08-19T01:49:03;76.22;;;49.97;;
29688;SDS011;16600;47.444;8.334;2022-08-19T01:51:29;74.03;;;48.00;;
29688;SDS011;16600;47.444;8.334;2022-08-19T01:53:55;60.00;;;46.25;;
29688;SDS011;16600;47.444;8.334;2022-08-19T01:58:51;35.60;;;31.17;;
29688;SDS011;16600;47.444;8.334;2022-08-19T02:01:18;39.60;;;34.78;;
29688;SDS011;16600;47.444;8.334;2022-08-19T02:06:10;50.78;;;36.08;;
29688;SDS011;16600;47.444;8.334;2022-08-19T02:08:36;36.63;;;32.78;;
29688;SDS011;16600;47.444;8.334;2022-08-19T02:11:05;33.60;;;29.98;;
29688;SDS011;16600;47.444;8.334;2022-08-19T02:13:32;37.03;;;32.78;;
29688;SDS011;16600;47.444;8.334;2022-08-19T02:15:59;32.83;;;28.90;;
29688;SDS011;16600;47.444;8.334;2022-08-19T02:18:25;40.95;;;31.00;;
29688;SDS011;16600;47.444;8.334;2022-08-19T02:20:52;39.70;;;33.53;;
29688;SDS011;16600;47.444;8.334;2022-08-19T02:23:18;45.55;;;36.38;;
29688;SDS011;16600;47.444;8.334;2022-08-19T02:25:45;43.35;;;35.25;;
29688;SDS011;16600;47.444;8.334;2022-08-19T02:28:12;39.13;;;34.97;;
29688;SDS011;16600;47.444;8.334;2022-08-19T02:30:38;43.13;;;34.72;;
29688;SDS011;16600;47.444;8.334;2022-08-19T02:33:04;30.08;;;26.05;;
29688;SDS011;16600;47.444;8.334;2022-08-19T02:35:34;16.50;;;14.93;;
29688;SDS011;16600;47.444;8.334;2022-08-19T02:40:51;22.52;;;18.00;;
29688;SDS011;16600;47.444;8.334;2022-08-19T02:43:17;33.33;;;29.95;;
29688;SDS011;16600;47.444;8.334;2022-08-19T02:45:45;36.67;;;32.88;;
29688;SDS011;16600;47.444;8.334;2022-08-19T02:48:15;42.28;;;33.28;;
29688;SDS011;16600;47.444;8.334;2022-08-19T02:50:42;37.22;;;33.30;;
29688;SDS011;16600;47.444;8.334;2022-08-19T02:53:09;43.00;;;36.33;;
29688;SDS011;16600;47.444;8.334;2022-08-19T02:55:35;42.42;;;36.95;;
29688;SDS011;16600;47.444;8.334;2022-08-19T02:58:01;64.22;;;42.25;;
29688;SDS011;16600;47.444;8.334;2022-08-19T03:00:27;43.60;;;37.20;;
29688;SDS011;16600;47.444;8.334;2022-08-19T03:02:54;29.17;;;26.30;;
29688;SDS011;16600;47.444;8.334;2022-08-19T03:07:45;31.17;;;24.63;;
29688;SDS011;16600;47.444;8.334;2022-08-19T03:10:12;25.38;;;22.70;;
29688;SDS011;16600;47.444;8.334;2022-08-19T03:12:41;34.47;;;30.75;;
29688;SDS011;16600;47.444;8.334;2022-08-19T03:15:07;35.22;;;31.00;;
29688;SDS011;16600;47.444;8.334;2022-08-19T03:17:34;36.22;;;32.50;;
29688;SDS011;16600;47.444;8.334;2022-08-19T03:20:00;33.65;;;29.30;;
29688;SDS011;16600;47.444;8.334;2022-08-19T03:22:29;29.48;;;25.13;;
29688;SDS011;16600;47.444;8.334;2022-08-19T03:24:56;16.08;;;14.38;;
29688;SDS011;16600;47.444;8.334;2022-08-19T03:27:21;16.17;;;11.82;;
29688;SDS011;16600;47.444;8.334;2022-08-19T03:32:13;18.90;;;17.02;;
29688;SDS011;16600;47.444;8.334;2022-08-19T03:34:39;30.65;;;27.60;;
29688;SDS011;16600;47.444;8.334;2022-08-19T03:37:06;31.48;;;28.05;;
29688;SDS011;16600;47.444;8.334;2022-08-19T03:39:33;28.33;;;24.65;;
29688;SDS011;16600;47.444;8.334;2022-08-19T03:41:59;30.98;;;27.80;;
29688;SDS011;16600;47.444;8.334;2022-08-19T03:44:28;34.08;;;27.55;;
29688;SDS011;16600;47.444;8.334;2022-08-19T03:46:56;17.55;;;15.68;;
29688;SDS011;16600;47.444;8.334;2022-08-19T03:49:24;15.52;;;13.98;;
29688;SDS011;16600;47.444;8.334;2022-08-19T03:51:50;27.35;;;24.65;;
29688;SDS011;16600;47.444;8.334;2022-08-19T03:54:17;29.15;;;25.95;;
29688;SDS011;16600;47.444;8.334;2022-08-19T03:56:44;12.38;;;11.15;;
29688;SDS011;16600;47.444;8.334;2022-08-19T03:59:12;23.05;;;20.40;;
29688;SDS011;16600;47.444;8.334;2022-08-19T04:03:03;26.83;;;24.20;;
29688;SDS011;16600;47.444;8.334;2022-08-19T04:05:30;19.52;;;17.63;;
29688;SDS011;16600;47.444;8.334;2022-08-19T04:07:56;24.27;;;21.95;;
29688;SDS011;16600;47.444;8.334;2022-08-19T04:10:24;15.55;;;14.07;;
29688;SDS011;16600;47.444;8.334;2022-08-19T04:12:53;19.38;;;17.38;;
29688;SDS011;16600;47.444;8.334;2022-08-19T04:15:19;11.18;;;9.85;;
29688;SDS011;16600;47.444;8.334;2022-08-19T04:17:46;11.75;;;9.68;;
29688;SDS011;16600;47.444;8.334;2022-08-19T04:20:15;16.90;;;12.38;;
29688;SDS011;16600;47.444;8.334;2022-08-19T04:22:41;11.30;;;10.27;;
29688;SDS011;16600;47.444;8.334;2022-08-19T04:25:07;8.25;;;7.45;;
29688;SDS011;16600;47.444;8.334;2022-08-19T04:27:33;11.07;;;7.10;;
29688;SDS011;16600;47.444;8.334;2022-08-19T04:29:59;8.50;;;7.20;;
29688;SDS011;16600;47.444;8.334;2022-08-19T04:32:25;8.60;;;7.68;;
29688;SDS011;16600;47.444;8.334;2022-08-19T04:34:51;8.57;;;7.70;;
29688;SDS011;16600;47.444;8.334;2022-08-19T04:37:18;8.40;;;7.60;;
29688;SDS011;16600;47.444;8.334;2022-08-19T04:39:44;7.95;;;7.30;;
29688;SDS011;16600;47.444;8.334;2022-08-19T04:42:29;6.85;;;6.05;;
29688;SDS011;16600;47.444;8.334;2022-08-19T04:45:06;14.80;;;10.77;;
29688;SDS011;16600;47.444;8.334;2022-08-19T04:47:36;9.82;;;8.82;;
29688;SDS011;16600;47.444;8.334;2022-08-19T04:50:02;7.50;;;5.63;;
29688;SDS011;16600;47.444;8.334;2022-08-19T04:52:28;7.25;;;6.55;;
29688;SDS011;16600;47.444;8.334;2022-08-19T04:54:57;6.57;;;5.97;;
29688;SDS011;16600;47.444;8.334;2022-08-19T04:57:23;5.80;;;5.30;;
29688;SDS011;16600;47.444;8.334;2022-08-19T04:59:49;7.70;;;5.72;;
29688;SDS011;16600;47.444;8.334;2022-08-19T05:02:19;6.70;;;5.60;;
29688;SDS011;16600;47.444;8.334;2022-08-19T05:04:45;9.10;;;6.25;;
29688;SDS011;16600;47.444;8.334;2022-08-19T05:07:11;8.63;;;7.30;;
29688;SDS011;16600;47.444;8.334;2022-08-19T05:09:37;7.95;;;7.15;;
29688;SDS011;16600;47.444;8.334;2022-08-19T05:12:06;7.13;;;6.53;;
29688;SDS011;16600;47.444;8.334;2022-08-19T05:14:32;7.72;;;7.13;;
29688;SDS011;16600;47.444;8.334;2022-08-19T05:16:58;8.25;;;7.53;;
29688;SDS011;16600;47.444;8.334;2022-08-19T05:19:24;6.45;;;5.85;;
29688;SDS011;16600;47.444;8.334;2022-08-19T05:22:08;10.63;;;9.63;;
29688;SDS011;16600;47.444;8.334;2022-08-19T05:24:52;7.47;;;6.75;;
29688;SDS011;16600;47.444;8.334;2022-08-19T05:27:18;12.13;;;10.98;;
29688;SDS011;16600;47.444;8.334;2022-08-19T05:29:47;12.18;;;10.98;;
29688;SDS011;16600;47.444;8.334;2022-08-19T05:32:13;12.23;;;10.77;;
29688;SDS011;16600;47.444;8.334;2022-08-19T05:34:40;6.38;;;5.78;;
29688;SDS011;16600;47.444;8.334;2022-08-19T05:37:08;13.60;;;12.40;;
29688;SDS011;16600;47.444;8.334;2022-08-19T05:39:35;15.38;;;12.40;;
29688;SDS011;16600;47.444;8.334;2022-08-19T05:42:03;13.63;;;12.23;;
29688;SDS011;16600;47.444;8.334;2022-08-19T05:44:33;14.23;;;12.77;;
29688;SDS011;16600;47.444;8.334;2022-08-19T05:47:00;15.27;;;13.80;;
29688;SDS011;16600;47.444;8.334;2022-08-19T05:49:26;16.73;;;14.98;;
29688;SDS011;16600;47.444;8.334;2022-08-19T05:51:52;9.82;;;8.88;;
29688;SDS011;16600;47.444;8.334;2022-08-19T05:54:19;7.20;;;6.50;;
29688;SDS011;16600;47.444;8.334;2022-08-19T05:56:45;12.65;;;11.40;;
29688;SDS011;16600;47.444;8.334;2022-08-19T05:59:14;7.90;;;7.07;;
29688;SDS011;16600;47.444;8.334;2022-08-19T06:01:42;9.70;;;8.75;;
29688;SDS011;16600;47.444;8.334;2022-08-19T06:04:12;9.75;;;7.70;;
29688;SDS011;16600;47.444;8.334;2022-08-19T06:06:39;14.93;;;13.45;;
29688;SDS011;16600;47.444;8.334;2022-08-19T06:09:06;9.38;;;8.48;;
29688;SDS011;16600;47.444;8.334;2022-08-19T06:11:43;8.32;;;6.57;;
29688;SDS011;16600;47.444;8.334;2022-08-19T06:14:17;6.13;;;5.63;;
29688;SDS011;16600;47.444;8.334;2022-08-19T06:16:46;11.52;;;8.25;;
29688;SDS011;16600;47.444;8.334;2022-08-19T06:19:14;8.98;;;8.18;;
29688;SDS011;16600;47.444;8.334;2022-08-19T06:21:42;7.20;;;6.57;;
29688;SDS011;16600;47.444;8.334;2022-08-19T06:24:09;9.98;;;8.98;;
29688;SDS011;16600;47.444;8.334;2022-08-19T06:26:36;7.07;;;6.38;;
29688;SDS011;16600;47.444;8.334;2022-08-19T06:29:04;8.40;;;6.72;;
29688;SDS011;16600;47.444;8.334;2022-08-19T06:31:31;8.57;;;7.78;;
29688;SDS011;16600;47.444;8.334;2022-08-19T06:34:04;10.57;;;9.52;;
29688;SDS011;16600;47.444;8.334;2022-08-19T06:36:35;12.43;;;11.20;;
29688;SDS011;16600;47.444;8.334;2022-08-19T06:39:02;11.38;;;10.35;;
29688;SDS011;16600;47.444;8.334;2022-08-19T06:41:30;12.05;;;10.82;;
29688;SDS011;16600;47.444;8.334;2022-08-19T06:43:56;9.55;;;8.65;;
29688;SDS011;16600;47.444;8.334;2022-08-19T06:46:22;12.20;;;11.07;;
29688;SDS011;16600;47.444;8.334;2022-08-19T06:48:48;9.68;;;6.50;;
29688;SDS011;16600;47.444;8.334;2022-08-19T06:51:15;13.18;;;6.13;;
29688;SDS011;16600;47.444;8.334;2022-08-19T06:53:47;7.47;;;6.15;;
29688;SDS011;16600;47.444;8.334;2022-08-19T06:56:16;6.85;;;6.18;;
29688;SDS011;16600;47.444;8.334;2022-08-19T06:58:43;6.13;;;5.43;;
29688;SDS011;16600;47.444;8.334;2022-08-19T07:01:09;7.32;;;6.50;;
29688;SDS011;16600;47.444;8.334;2022-08-19T07:03:36;7.22;;;6.53;;
29688;SDS011;16600;47.444;8.334;2022-08-19T07:06:04;7.25;;;6.40;;
29688;SDS011;16600;47.444;8.334;2022-08-19T07:08:32;8.00;;;7.30;;
29688;SDS011;16600;47.444;8.334;2022-08-19T07:10:58;7.15;;;6.45;;
29688;SDS011;16600;47.444;8.334;2022-08-19T07:13:24;7.28;;;6.40;;
29688;SDS011;16600;47.444;8.334;2022-08-19T07:15:50;7.50;;;6.63;;
29688;SDS011;16600;47.444;8.334;2022-08-19T07:18:19;6.95;;;6.28;;
29688;SDS011;16600;47.444;8.334;2022-08-19T07:20:47;9.25;;;6.35;;
29688;SDS011;16600;47.444;8.334;2022-08-19T07:23:13;8.32;;;7.15;;
29688;SDS011;16600;47.444;8.334;2022-08-19T07:25:39;7.22;;;6.57;;
29688;SDS011;16600;47.444;8.334;2022-08-19T07:28:05;7.95;;;7.15;;
29688;SDS011;16600;47.444;8.334;2022-08-19T07:30:36;10.35;;;6.50;;
29688;SDS011;16600;47.444;8.334;2022-08-19T07:33:02;7.07;;;6.47;;
29688;SDS011;16600;47.444;8.334;2022-08-19T07:35:28;8.10;;;7.30;;
29688;SDS011;16600;47.444;8.334;2022-08-19T07:37:57;7.38;;;6.50;;
29688;SDS011;16600;47.444;8.334;2022-08-19T07:40:28;8.05;;;7.25;;
29688;SDS011;16600;47.444;8.334;2022-08-19T07:42:54;7.35;;;6.68;;
29688;SDS011;16600;47.444;8.334;2022-08-19T07:45:20;7.97;;;6.50;;
29688;SDS011;16600;47.444;8.334;2022-08-19T07:47:46;8.85;;;6.90;;
29688;SDS011;16600;47.444;8.334;2022-08-19T07:50:15;7.65;;;6.55;;
29688;SDS011;16600;47.444;8.334;2022-08-19T07:52:41;10.40;;;7.10;;
29688;SDS011;16600;47.444;8.334;2022-08-19T07:55:09;7.95;;;7.03;;
29688;SDS011;16600;47.444;8.334;2022-08-19T07:57:35;8.68;;;6.03;;
29688;SDS011;16600;47.444;8.334;2022-08-19T08:00:02;7.18;;;6.47;;
29688;SDS011;16600;47.444;8.334;2022-08-19T08:02:37;8.48;;;7.38;;
29688;SDS011;16600;47.444;8.334;2022-08-19T08:05:04;7.80;;;7.13;;
29688;SDS011;16600;47.444;8.334;2022-08-19T08:07:49;8.23;;;7.40;;
29688;SDS011;16600;47.444;8.334;2022-08-19T08:10:33;11.27;;;7.95;;
29688;SDS011;16600;47.444;8.334;2022-08-19T08:12:59;8.30;;;7.60;;
29688;SDS011;16600;47.444;8.334;2022-08-19T08:15:25;7.78;;;7.07;;
29688;SDS011;16600;47.444;8.334;2022-08-19T08:17:51;9.00;;;8.10;;
29688;SDS011;16600;47.444;8.334;2022-08-19T08:20:17;8.00;;;7.28;;
29688;SDS011;16600;47.444;8.334;2022-08-19T08:22:44;8.60;;;7.82;;
29688;SDS011;16600;47.444;8.334;2022-08-19T08:25:29;10.75;;;7.78;;
29688;SDS011;16600;47.444;8.334;2022-08-19T08:27:56;9.25;;;7.57;;
29688;SDS011;16600;47.444;8.334;2022-08-19T08:30:25;7.63;;;6.97;;
29688;SDS011;16600;47.444;8.334;2022-08-19T08:32:53;12.40;;;9.40;;
29688;SDS011;16600;47.444;8.334;2022-08-19T08:35:20;9.20;;;8.25;;
29688;SDS011;16600;47.444;8.334;2022-08-19T08:37:46;12.65;;;8.27;;
29688;SDS011;16600;47.444;8.334;2022-08-19T08:40:21;12.27;;;8.30;;
29688;SDS011;16600;47.444;8.334;2022-08-19T08:45:55;10.70;;;8.68;;
29688;SDS011;16600;47.444;8.334;2022-08-19T08:48:30;9.23;;;8.25;;
29688;SDS011;16600;47.444;8.334;2022-08-19T08:50:58;9.88;;;8.90;;
29688;SDS011;16600;47.444;8.334;2022-08-19T08:53:28;9.75;;;8.75;;
29688;SDS011;16600;47.444;8.334;2022-08-19T08:55:57;9.68;;;8.70;;
29688;SDS011;16600;47.444;8.334;2022-08-19T08:58:32;9.77;;;8.88;;
29688;SDS011;16600;47.444;8.334;2022-08-19T09:01:09;10.35;;;9.45;;
29688;SDS011;16600;47.444;8.334;2022-08-19T09:03:36;11.32;;;10.23;;
29688;SDS011;16600;47.444;8.334;2022-08-19T09:08:56;13.57;;;12.10;;
29688;SDS011;16600;47.444;8.334;2022-08-19T09:11:47;13.30;;;10.63;;
29688;SDS011;16600;47.444;8.334;2022-08-19T09:16:40;11.75;;;10.55;;
29688;SDS011;16600;47.444;8.334;2022-08-19T09:19:07;13.50;;;11.77;;
29688;SDS011;16600;47.444;8.334;2022-08-19T09:21:36;18.83;;;10.38;;
29688;SDS011;16600;47.444;8.334;2022-08-19T09:24:04;14.48;;;13.05;;
29688;SDS011;16600;47.444;8.334;2022-08-19T09:26:31;13.40;;;12.15;;
29688;SDS011;16600;47.444;8.334;2022-08-19T09:29:00;17.55;;;11.02;;
29688;SDS011;16600;47.444;8.334;2022-08-19T09:31:30;15.63;;;13.52;;
29688;SDS011;16600;47.444;8.334;2022-08-19T09:33:58;14.73;;;11.75;;
29688;SDS011;16600;47.444;8.334;2022-08-19T09:36:25;13.75;;;12.27;;
29688;SDS011;16600;47.444;8.334;2022-08-19T09:38:52;12.20;;;10.90;;
29688;SDS011;16600;47.444;8.334;2022-08-19T09:41:19;12.82;;;11.63;;
29688;SDS011;16600;47.444;8.334;2022-08-19T09:43:46;23.65;;;14.30;;
29688;SDS011;16600;47.444;8.334;2022-08-19T09:46:12;13.02;;;11.73;;
29688;SDS011;16600;47.444;8.334;2022-08-19T09:48:39;14.93;;;12.68;;
29688;SDS011;16600;47.444;8.334;2022-08-19T09:51:06;15.77;;;13.75;;
29688;SDS011;16600;47.444;8.334;2022-08-19T09:53:33;14.15;;;12.60;;
29688;SDS011;16600;47.444;8.334;2022-08-19T09:55:59;15.60;;;14.10;;
29688;SDS011;16600;47.444;8.334;2022-08-19T09:58:25;13.98;;;12.68;;
29688;SDS011;16600;47.444;8.334;2022-08-19T10:03:04;14.02;;;12.68;;
29688;SDS011;16600;47.444;8.334;2022-08-19T10:05:29;15.77;;;12.90;;
29688;SDS011;16600;47.444;8.334;2022-08-19T10:08:14;16.13;;;14.52;;
29688;SDS011;16600;47.444;8.334;2022-08-19T10:10:41;14.43;;;12.93;;
29688;SDS011;16600;47.444;8.334;2022-08-19T10:13:10;14.43;;;12.90;;
29688;SDS011;16600;47.444;8.334;2022-08-19T10:15:36;15.15;;;13.65;;
29688;SDS011;16600;47.444;8.334;2022-08-19T10:18:05;19.25;;;15.27;;
29688;SDS011;16600;47.444;8.334;2022-08-19T10:20:31;18.23;;;16.42;;
29688;SDS011;16600;47.444;8.334;2022-08-19T10:22:59;17.17;;;15.35;;
29688;SDS011;16600;47.444;8.334;2022-08-19T10:25:28;17.25;;;15.45;;
29688;SDS011;16600;47.444;8.334;2022-08-19T10:27:54;18.58;;;16.65;;
29688;SDS011;16600;47.444;8.334;2022-08-19T10:30:20;17.42;;;15.40;;
29688;SDS011;16600;47.444;8.334;2022-08-19T10:32:46;19.63;;;16.63;;
29688;SDS011;16600;47.444;8.334;2022-08-19T10:35:12;19.98;;;17.88;;
29688;SDS011;16600;47.444;8.334;2022-08-19T10:37:39;20.40;;;16.63;;
29688;SDS011;16600;47.444;8.334;2022-08-19T10:40:06;23.58;;;16.90;;
29688;SDS011;16600;47.444;8.334;2022-08-19T10:42:33;19.65;;;17.63;;
29688;SDS011;16600;47.444;8.334;2022-08-19T10:44:59;29.98;;;16.95;;
29688;SDS011;16600;47.444;8.334;2022-08-19T10:47:26;19.40;;;16.52;;
29688;SDS011;16600;47.444;8.334;2022-08-19T10:49:52;17.95;;;16.25;;
29688;SDS011;16600;47.444;8.334;2022-08-19T10:52:36;24.38;;;19.80;;
29688;SDS011;16600;47.444;8.334;2022-08-19T10:55:03;22.20;;;16.75;;
29688;SDS011;16600;47.444;8.334;2022-08-19T10:57:48;18.85;;;15.07;;
29688;SDS011;16600;47.444;8.334;2022-08-19T11:00:14;17.35;;;15.63;;
29688;SDS011;16600;47.444;8.334;2022-08-19T11:02:40;19.52;;;17.38;;
29688;SDS011;16600;47.444;8.334;2022-08-19T11:05:07;17.80;;;16.05;;
29688;SDS011;16600;47.444;8.334;2022-08-19T11:07:37;20.08;;;16.35;;
29688;SDS011;16600;47.444;8.334;2022-08-19T11:10:03;19.38;;;15.23;;
29688;SDS011;16600;47.444;8.334;2022-08-19T11:12:29;17.30;;;14.60;;
29688;SDS011;16600;47.444;8.334;2022-08-19T11:14:55;15.98;;;14.43;;
29688;SDS011;16600;47.444;8.334;2022-08-19T11:17:21;15.35;;;13.82;;
29688;SDS011;16600;47.444;8.334;2022-08-19T11:19:49;15.95;;;14.25;;
29688;SDS011;16600;47.444;8.334;2022-08-19T11:22:15;16.77;;;13.98;;
29688;SDS011;16600;47.444;8.334;2022-08-19T11:24:42;18.38;;;14.20;;
29688;SDS011;16600;47.444;8.334;2022-08-19T11:27:09;18.08;;;14.15;;
29688;SDS011;16600;47.444;8.334;2022-08-19T11:29:35;17.50;;;14.13;;
29688;SDS011;16600;47.444;8.334;2022-08-19T11:32:04;15.52;;;13.88;;
29688;SDS011;16600;47.444;8.334;2022-08-19T11:34:30;17.88;;;15.40;;
29688;SDS011;16600;47.444;8.334;2022-08-19T11:36:56;14.80;;;13.40;;
29688;SDS011;16600;47.444;8.334;2022-08-19T11:39:26;24.90;;;21.27;;
29688;SDS011;16600;47.444;8.334;2022-08-19T11:41:53;13.32;;;12.02;;
29688;SDS011;16600;47.444;8.334;2022-08-19T11:44:18;16.88;;;14.15;;
29688;SDS011;16600;47.444;8.334;2022-08-19T11:46:44;15.00;;;13.40;;
29688;SDS011;16600;47.444;8.334;2022-08-19T11:49:18;23.98;;;21.05;;
29688;SDS011;16600;47.444;8.334;2022-08-19T11:51:48;23.75;;;21.33;;
29688;SDS011;16600;47.444;8.334;2022-08-19T11:54:16;23.02;;;20.20;;
29688;SDS011;16600;47.444;8.334;2022-08-19T11:56:42;21.48;;;19.38;;
29688;SDS011;16600;47.444;8.334;2022-08-19T11:59:08;21.88;;;19.70;;
29688;SDS011;16600;47.444;8.334;2022-08-19T12:01:36;25.13;;;22.58;;
29688;SDS011;16600;47.444;8.334;2022-08-19T12:04:02;28.85;;;24.08;;
29688;SDS011;16600;47.444;8.334;2022-08-19T12:06:31;27.35;;;24.02;;
29688;SDS011;16600;47.444;8.334;2022-08-19T12:08:58;25.70;;;22.83;;
29688;SDS011;16600;47.444;8.334;2022-08-19T12:11:25;25.95;;;23.15;;
29688;SDS011;16600;47.444;8.334;2022-08-19T12:13:51;22.95;;;20.52;;
29688;SDS011;16600;47.444;8.334;2022-08-19T12:16:19;26.85;;;22.48;;
29688;SDS011;16600;47.444;8.334;2022-08-19T12:18:44;27.63;;;23.00;;
29688;SDS011;16600;47.444;8.334;2022-08-19T12:21:15;26.17;;;22.80;;
29688;SDS011;16600;47.444;8.334;2022-08-19T12:23:41;27.02;;;23.10;;
29688;SDS011;16600;47.444;8.334;2022-08-19T12:26:08;25.50;;;22.85;;
29688;SDS011;16600;47.444;8.334;2022-08-19T12:28:33;27.40;;;23.20;;
29688;SDS011;16600;47.444;8.334;2022-08-19T12:30:59;32.35;;;23.98;;
29688;SDS011;16600;47.444;8.334;2022-08-19T12:33:25;27.17;;;24.55;;
29688;SDS011;16600;47.444;8.334;2022-08-19T12:35:52;22.75;;;20.25;;
29688;SDS011;16600;47.444;8.334;2022-08-19T12:38:18;31.55;;;27.13;;
29688;SDS011;16600;47.444;8.334;2022-08-19T12:40:46;32.20;;;28.30;;
29688;SDS011;16600;47.444;8.334;2022-08-19T12:43:12;30.95;;;27.52;;
29688;SDS011;16600;47.444;8.334;2022-08-19T12:45:41;28.27;;;24.33;;
29688;SDS011;16600;47.444;8.334;2022-08-19T12:48:07;25.90;;;23.00;;
29688;SDS011;16600;47.444;8.334;2022-08-19T12:50:32;25.80;;;23.10;;
29688;SDS011;16600;47.444;8.334;2022-08-19T12:52:58;29.38;;;26.42;;
29688;SDS011;16600;47.444;8.334;2022-08-19T12:55:23;25.98;;;23.38;;
29688;SDS011;16600;47.444;8.334;2022-08-19T12:57:50;22.98;;;20.58;;
29688;SDS011;16600;47.444;8.334;2022-08-19T13:00:16;27.55;;;24.73;;
29688;SDS011;16600;47.444;8.334;2022-08-19T13:02:43;29.85;;;22.08;;
29688;SDS011;16600;47.444;8.334;2022-08-19T13:05:12;25.35;;;22.55;;
29688;SDS011;16600;47.444;8.334;2022-08-19T13:07:38;22.23;;;19.92;;
29688;SDS011;16600;47.444;8.334;2022-08-19T13:10:05;8.30;;;7.15;;
29688;SDS011;16600;47.444;8.334;2022-08-19T13:12:34;39.45;;;17.10;;
29688;SDS011;16600;47.444;8.334;2022-08-19T13:15:02;40.40;;;13.80;;
29688;SDS011;16600;47.444;8.334;2022-08-19T13:17:28;19.75;;;17.73;;
29688;SDS011;16600;47.444;8.334;2022-08-19T13:19:54;25.17;;;18.67;;
29688;SDS011;16600;47.444;8.334;2022-08-19T13:22:20;20.23;;;18.02;;
29688;SDS011;16600;47.444;8.334;2022-08-19T13:24:46;19.20;;;16.50;;
29688;SDS011;16600;47.444;8.334;2022-08-19T13:27:13;19.52;;;17.50;;
29688;SDS011;16600;47.444;8.334;2022-08-19T13:29:40;19.67;;;17.77;;
29688;SDS011;16600;47.444;8.334;2022-08-19T13:32:24;21.92;;;19.10;;
29688;SDS011;16600;47.444;8.334;2022-08-19T13:35:09;19.50;;;17.45;;
29688;SDS011;16600;47.444;8.334;2022-08-19T13:37:35;24.20;;;20.75;;
29688;SDS011;16600;47.444;8.334;2022-08-19T13:40:07;27.85;;;20.80;;
29688;SDS011;16600;47.444;8.334;2022-08-19T13:42:39;23.50;;;20.13;;
29688;SDS011;16600;47.444;8.334;2022-08-19T13:45:05;21.83;;;19.50;;
29688;SDS011;16600;47.444;8.334;2022-08-19T13:47:32;26.33;;;23.55;;
29688;SDS011;16600;47.444;8.334;2022-08-19T13:49:59;24.08;;;20.23;;
29688;SDS011;16600;47.444;8.334;2022-08-19T13:52:25;22.17;;;19.85;;
29688;SDS011;16600;47.444;8.334;2022-08-19T13:54:51;22.27;;;19.98;;
29688;SDS011;16600;47.444;8.334;2022-08-19T13:57:16;22.33;;;19.63;;
29688;SDS011;16600;47.444;8.334;2022-08-19T13:59:42;22.15;;;19.83;;
29688;SDS011;16600;47.444;8.334;2022-08-19T14:02:07;26.02;;;23.45;;
29688;SDS011;16600;47.444;8.334;2022-08-19T14:04:33;24.15;;;21.48;;
29688;SDS011;16600;47.444;8.334;2022-08-19T14:07:00;24.65;;;22.08;;
29688;SDS011;16600;47.444;8.334;2022-08-19T14:09:26;29.25;;;25.77;;
29688;SDS011;16600;47.444;8.334;2022-08-19T14:11:52;30.80;;;24.88;;
29688;SDS011;16600;47.444;8.334;2022-08-19T14:14:18;27.20;;;24.25;;
29688;SDS011;16600;47.444;8.334;2022-08-19T14:16:44;29.10;;;23.27;;
29688;SDS011;16600;47.444;8.334;2022-08-19T14:19:11;27.15;;;24.30;;
29688;SDS011;16600;47.444;8.334;2022-08-19T14:21:37;26.25;;;22.13;;
29688;SDS011;16600;47.444;8.334;2022-08-19T14:24:03;23.77;;;21.33;;
29688;SDS011;16600;47.444;8.334;2022-08-19T14:26:29;25.20;;;20.17;;
29688;SDS011;16600;47.444;8.334;2022-08-19T14:28:54;25.73;;;23.33;;
29688;SDS011;16600;47.444;8.334;2022-08-19T14:31:23;21.98;;;19.58;;
29688;SDS011;16600;47.444;8.334;2022-08-19T14:33:51;21.63;;;19.42;;
29688;SDS011;16600;47.444;8.334;2022-08-19T14:36:17;19.83;;;17.77;;
29688;SDS011;16600;47.444;8.334;2022-08-19T14:38:47;20.65;;;18.55;;
29688;SDS011;16600;47.444;8.334;2022-08-19T14:41:15;22.52;;;20.20;;
29688;SDS011;16600;47.444;8.334;2022-08-19T14:43:43;22.42;;;19.95;;
29688;SDS011;16600;47.444;8.334;2022-08-19T14:46:11;25.25;;;21.42;;
29688;SDS011;16600;47.444;8.334;2022-08-19T14:48:37;21.83;;;19.60;;
29688;SDS011;16600;47.444;8.334;2022-08-19T14:51:05;24.90;;;22.23;;
29688;SDS011;16600;47.444;8.334;2022-08-19T14:53:34;24.75;;;21.83;;
29688;SDS011;16600;47.444;8.334;2022-08-19T14:56:00;21.85;;;18.85;;
29688;SDS011;16600;47.444;8.334;2022-08-19T14:58:26;26.85;;;24.08;;
29688;SDS011;16600;47.444;8.334;2022-08-19T15:00:52;30.08;;;21.92;;
29688;SDS011;16600;47.444;8.334;2022-08-19T15:03:18;19.95;;;18.10;;
29688;SDS011;16600;47.444;8.334;2022-08-19T15:05:44;22.52;;;20.35;;
29688;SDS011;16600;47.444;8.334;2022-08-19T15:08:11;16.25;;;14.50;;
29688;SDS011;16600;47.444;8.334;2022-08-19T15:10:38;14.30;;;12.73;;
29688;SDS011;16600;47.444;8.334;2022-08-19T15:13:04;13.20;;;10.70;;
29688;SDS011;16600;47.444;8.334;2022-08-19T15:15:29;13.45;;;12.05;;